Mount Lookout, Ohio
Current Conditions -  °F | °C
As of 7:53 PM on Wednesday 17 Dec 2014 (Local Time) from KLUK Reporting Station
Overcast Overcast  
Wind Chill: 22°   Ceiling: 1900
Heat Index: 29°   Visibility: 10mi
Dew Point: 22°   Wind: 7mph
Humidity: 75%   Direction: NA
Pressure: 30.28"   Gusts: NA
Location:  39.1347°N, 84.4352°W
Report Text: KLUK 180053Z VRB06KT 10SM OVC019 M02/M06 A3028 RMK AO2 SLP258 T10171056
Loading
Personal Weather Stations






























Interactive Weather Map New forecast layout! Learn more

10-Day Weather Forecast

Advertisements
Track Severe Weather on mobile